sensor_id;sensor_type;location;lat;lon;timestamp;temperature;humidity
27306;DHT22;14792;50.886;6.468;2023-11-19T00:00:29;12.50;99.90
27306;DHT22;14792;50.886;6.468;2023-11-19T00:03:31;12.50;99.90
27306;DHT22;14792;50.886;6.468;2023-11-19T00:06:32;12.50;99.90
27306;DHT22;14792;50.886;6.468;2023-11-19T00:09:34;12.60;99.90
27306;DHT22;14792;50.886;6.468;2023-11-19T00:12:39;12.50;99.90
27306;DHT22;14792;50.886;6.468;2023-11-19T00:15:37;12.60;99.90
27306;DHT22;14792;50.886;6.468;2023-11-19T00:18:39;12.60;99.90
27306;DHT22;14792;50.886;6.468;2023-11-19T00:21:40;12.60;99.90
27306;DHT22;14792;50.886;6.468;2023-11-19T00:24:42;12.60;99.90
27306;DHT22;14792;50.886;6.468;2023-11-19T00:27:44;12.60;99.90
27306;DHT22;14792;50.886;6.468;2023-11-19T00:30:48;12.70;99.90
27306;DHT22;14792;50.886;6.468;2023-11-19T00:33:50;12.60;99.90
27306;DHT22;14792;50.886;6.468;2023-11-19T00:36:51;12.60;99.90
27306;DHT22;14792;50.886;6.468;2023-11-19T00:39:53;12.60;99.90
27306;DHT22;14792;50.886;6.468;2023-11-19T00:42:55;12.70;99.90
27306;DHT22;14792;50.886;6.468;2023-11-19T00:45:56;12.60;99.90
27306;DHT22;14792;50.886;6.468;2023-11-19T00:48:58;12.70;99.90
27306;DHT22;14792;50.886;6.468;2023-11-19T00:51:59;12.70;99.90
27306;DHT22;14792;50.886;6.468;2023-11-19T00:55:01;12.60;99.90
27306;DHT22;14792;50.886;6.468;2023-11-19T00:58:02;12.60;99.90
27306;DHT22;14792;50.886;6.468;2023-11-19T01:01:04;12.60;99.90
27306;DHT22;14792;50.886;6.468;2023-11-19T01:04:06;12.60;99.90
27306;DHT22;14792;50.886;6.468;2023-11-19T01:07:07;12.60;99.90
27306;DHT22;14792;50.886;6.468;2023-11-19T01:10:09;12.70;99.90
27306;DHT22;14792;50.886;6.468;2023-11-19T01:13:10;12.70;99.90
27306;DHT22;14792;50.886;6.468;2023-11-19T01:16:12;12.80;99.90
27306;DHT22;14792;50.886;6.468;2023-11-19T01:19:14;12.80;99.90
27306;DHT22;14792;50.886;6.468;2023-11-19T01:22:15;12.90;99.90
27306;DHT22;14792;50.886;6.468;2023-11-19T01:25:17;12.90;99.90
27306;DHT22;14792;50.886;6.468;2023-11-19T01:28:19;13.00;99.90
27306;DHT22;14792;50.886;6.468;2023-11-19T01:31:20;13.00;99.90
27306;DHT22;14792;50.886;6.468;2023-11-19T01:34:22;13.00;99.90
27306;DHT22;14792;50.886;6.468;2023-11-19T01:37:23;12.90;99.90
27306;DHT22;14792;50.886;6.468;2023-11-19T01:40:25;12.90;99.90
27306;DHT22;14792;50.886;6.468;2023-11-19T01:43:36;12.90;99.90
27306;DHT22;14792;50.886;6.468;2023-11-19T01:46:37;13.00;99.90
27306;DHT22;14792;50.886;6.468;2023-11-19T01:49:38;13.00;99.90
27306;DHT22;14792;50.886;6.468;2023-11-19T01:52:40;13.00;99.90
27306;DHT22;14792;50.886;6.468;2023-11-19T01:55:42;13.10;99.90
27306;DHT22;14792;50.886;6.468;2023-11-19T01:58:43;13.10;99.90
27306;DHT22;14792;50.886;6.468;2023-11-19T02:01:45;13.10;99.90
27306;DHT22;14792;50.886;6.468;2023-11-19T02:04:49;13.10;99.90
27306;DHT22;14792;50.886;6.468;2023-11-19T02:07:49;13.10;99.90
27306;DHT22;14792;50.886;6.468;2023-11-19T02:10:51;13.10;99.90
27306;DHT22;14792;50.886;6.468;2023-11-19T02:13:52;13.10;99.90
27306;DHT22;14792;50.886;6.468;2023-11-19T02:16:54;13.10;99.90
27306;DHT22;14792;50.886;6.468;2023-11-19T02:19:55;13.00;99.90
27306;DHT22;14792;50.886;6.468;2023-11-19T02:22:57;13.00;99.90
27306;DHT22;14792;50.886;6.468;2023-11-19T02:26:19;13.00;99.90
27306;DHT22;14792;50.886;6.468;2023-11-19T02:29:19;13.00;99.90
27306;DHT22;14792;50.886;6.468;2023-11-19T02:32:20;13.00;99.90
27306;DHT22;14792;50.886;6.468;2023-11-19T02:35:22;12.90;99.90
27306;DHT22;14792;50.886;6.468;2023-11-19T02:38:24;12.90;99.90
27306;DHT22;14792;50.886;6.468;2023-11-19T02:41:25;12.90;99.90
27306;DHT22;14792;50.886;6.468;2023-11-19T02:44:27;12.80;99.90
27306;DHT22;14792;50.886;6.468;2023-11-19T02:47:28;12.80;99.90
27306;DHT22;14792;50.886;6.468;2023-11-19T02:50:30;12.80;99.90
27306;DHT22;14792;50.886;6.468;2023-11-19T02:53:32;12.80;99.90
27306;DHT22;14792;50.886;6.468;2023-11-19T02:56:33;12.80;99.90
27306;DHT22;14792;50.886;6.468;2023-11-19T02:59:36;12.80;99.90
27306;DHT22;14792;50.886;6.468;2023-11-19T03:02:36;12.80;99.90
27306;DHT22;14792;50.886;6.468;2023-11-19T03:05:38;12.80;99.90
27306;DHT22;14792;50.886;6.468;2023-11-19T03:08:40;12.90;99.90
27306;DHT22;14792;50.886;6.468;2023-11-19T03:11:41;12.90;99.90
27306;DHT22;14792;50.886;6.468;2023-11-19T03:14:43;12.90;99.90
27306;DHT22;14792;50.886;6.468;2023-11-19T03:17:44;12.90;99.90
27306;DHT22;14792;50.886;6.468;2023-11-19T03:20:49;12.90;99.90
27306;DHT22;14792;50.886;6.468;2023-11-19T03:23:50;12.90;99.90
27306;DHT22;14792;50.886;6.468;2023-11-19T03:26:52;13.00;99.90
27306;DHT22;14792;50.886;6.468;2023-11-19T03:29:54;12.90;99.90
27306;DHT22;14792;50.886;6.468;2023-11-19T03:32:55;12.90;99.90
27306;DHT22;14792;50.886;6.468;2023-11-19T03:35:57;13.00;99.90
27306;DHT22;14792;50.886;6.468;2023-11-19T03:38:58;13.00;99.90
27306;DHT22;14792;50.886;6.468;2023-11-19T03:42:00;13.00;99.90
27306;DHT22;14792;50.886;6.468;2023-11-19T03:45:01;12.90;99.90
27306;DHT22;14792;50.886;6.468;2023-11-19T03:48:03;12.90;99.90
27306;DHT22;14792;50.886;6.468;2023-11-19T03:51:05;13.00;99.90
27306;DHT22;14792;50.886;6.468;2023-11-19T03:54:06;12.90;99.90
27306;DHT22;14792;50.886;6.468;2023-11-19T03:57:08;12.90;99.90
27306;DHT22;14792;50.886;6.468;2023-11-19T04:00:09;12.90;99.90
27306;DHT22;14792;50.886;6.468;2023-11-19T04:03:11;12.80;99.90
27306;DHT22;14792;50.886;6.468;2023-11-19T04:06:13;12.80;99.90
27306;DHT22;14792;50.886;6.468;2023-11-19T04:09:14;12.90;99.90
27306;DHT22;14792;50.886;6.468;2023-11-19T04:12:21;12.90;99.90
27306;DHT22;14792;50.886;6.468;2023-11-19T04:15:18;12.80;99.90
27306;DHT22;14792;50.886;6.468;2023-11-19T04:18:20;12.80;99.90
27306;DHT22;14792;50.886;6.468;2023-11-19T04:21:22;12.80;99.90
27306;DHT22;14792;50.886;6.468;2023-11-19T04:24:23;12.70;99.90
27306;DHT22;14792;50.886;6.468;2023-11-19T04:27:25;12.60;99.90
27306;DHT22;14792;50.886;6.468;2023-11-19T04:30:26;12.60;99.90
27306;DHT22;14792;50.886;6.468;2023-11-19T04:33:28;12.50;99.90
27306;DHT22;14792;50.886;6.468;2023-11-19T04:36:30;12.50;99.90
27306;DHT22;14792;50.886;6.468;2023-11-19T04:39:31;12.50;99.90
27306;DHT22;14792;50.886;6.468;2023-11-19T04:42:33;12.50;99.90
27306;DHT22;14792;50.886;6.468;2023-11-19T04:45:34;12.60;99.90
27306;DHT22;14792;50.886;6.468;2023-11-19T04:48:36;12.60;99.90
27306;DHT22;14792;50.886;6.468;2023-11-19T04:51:38;12.60;99.90
27306;DHT22;14792;50.886;6.468;2023-11-19T04:54:42;12.60;99.90
27306;DHT22;14792;50.886;6.468;2023-11-19T04:57:43;12.60;99.90
27306;DHT22;14792;50.886;6.468;2023-11-19T05:00:45;12.60;99.90
27306;DHT22;14792;50.886;6.468;2023-11-19T05:03:47;12.50;99.90
27306;DHT22;14792;50.886;6.468;2023-11-19T05:06:48;12.50;99.90
27306;DHT22;14792;50.886;6.468;2023-11-19T05:09:50;12.50;99.90
27306;DHT22;14792;50.886;6.468;2023-11-19T05:12:51;12.40;99.90
27306;DHT22;14792;50.886;6.468;2023-11-19T05:15:53;12.30;99.90
27306;DHT22;14792;50.886;6.468;2023-11-19T05:18:55;12.40;99.90
27306;DHT22;14792;50.886;6.468;2023-11-19T05:21:56;12.40;99.90
27306;DHT22;14792;50.886;6.468;2023-11-19T05:24:58;12.40;99.90
27306;DHT22;14792;50.886;6.468;2023-11-19T05:27:59;12.30;99.90
27306;DHT22;14792;50.886;6.468;2023-11-19T05:31:01;12.20;99.90
27306;DHT22;14792;50.886;6.468;2023-11-19T05:34:02;12.30;99.90
27306;DHT22;14792;50.886;6.468;2023-11-19T05:37:04;12.30;99.90
27306;DHT22;14792;50.886;6.468;2023-11-19T05:40:06;12.40;99.90
27306;DHT22;14792;50.886;6.468;2023-11-19T05:43:07;12.40;99.90
27306;DHT22;14792;50.886;6.468;2023-11-19T05:46:09;12.30;99.90
27306;DHT22;14792;50.886;6.468;2023-11-19T05:49:11;12.30;99.90
27306;DHT22;14792;50.886;6.468;2023-11-19T05:52:12;12.30;99.90
27306;DHT22;14792;50.886;6.468;2023-11-19T05:55:14;12.30;99.90
27306;DHT22;14792;50.886;6.468;2023-11-19T05:58:15;12.30;99.90
27306;DHT22;14792;50.886;6.468;2023-11-19T06:01:18;12.40;99.90
27306;DHT22;14792;50.886;6.468;2023-11-19T06:04:19;12.30;99.90
27306;DHT22;14792;50.886;6.468;2023-11-19T06:07:21;12.30;99.90
27306;DHT22;14792;50.886;6.468;2023-11-19T06:10:22;12.20;99.90
27306;DHT22;14792;50.886;6.468;2023-11-19T06:13:24;12.20;99.90
27306;DHT22;14792;50.886;6.468;2023-11-19T06:16:26;12.20;99.90
27306;DHT22;14792;50.886;6.468;2023-11-19T06:19:27;12.10;99.90
27306;DHT22;14792;50.886;6.468;2023-11-19T06:22:29;12.10;99.90
27306;DHT22;14792;50.886;6.468;2023-11-19T06:25:30;12.20;99.90
27306;DHT22;14792;50.886;6.468;2023-11-19T06:28:32;12.20;99.90
27306;DHT22;14792;50.886;6.468;2023-11-19T06:31:34;12.20;99.90
27306;DHT22;14792;50.886;6.468;2023-11-19T06:34:35;12.30;99.90
27306;DHT22;14792;50.886;6.468;2023-11-19T06:37:40;12.30;99.90
27306;DHT22;14792;50.886;6.468;2023-11-19T06:40:41;12.20;99.90
27306;DHT22;14792;50.886;6.468;2023-11-19T06:43:43;12.20;99.90
27306;DHT22;14792;50.886;6.468;2023-11-19T06:46:44;12.10;99.90
27306;DHT22;14792;50.886;6.468;2023-11-19T06:49:47;12.10;99.90
27306;DHT22;14792;50.886;6.468;2023-11-19T06:52:49;12.10;99.90
27306;DHT22;14792;50.886;6.468;2023-11-19T06:55:51;12.10;99.90
27306;DHT22;14792;50.886;6.468;2023-11-19T06:58:52;12.00;99.90
27306;DHT22;14792;50.886;6.468;2023-11-19T07:01:54;12.00;99.90
27306;DHT22;14792;50.886;6.468;2023-11-19T07:04:55;12.00;99.90
27306;DHT22;14792;50.886;6.468;2023-11-19T07:07:57;11.90;99.90
27306;DHT22;14792;50.886;6.468;2023-11-19T07:10:59;12.00;99.90
27306;DHT22;14792;50.886;6.468;2023-11-19T07:14:00;12.00;99.90
27306;DHT22;14792;50.886;6.468;2023-11-19T07:17:02;11.90;99.90
27306;DHT22;14792;50.886;6.468;2023-11-19T07:20:03;11.90;99.90
27306;DHT22;14792;50.886;6.468;2023-11-19T07:23:05;11.90;99.90
27306;DHT22;14792;50.886;6.468;2023-11-19T07:26:07;11.80;99.90
27306;DHT22;14792;50.886;6.468;2023-11-19T07:29:11;11.70;99.90
27306;DHT22;14792;50.886;6.468;2023-11-19T07:32:13;11.70;99.90
27306;DHT22;14792;50.886;6.468;2023-11-19T07:35:18;11.70;99.90
27306;DHT22;14792;50.886;6.468;2023-11-19T07:38:19;11.70;99.90
27306;DHT22;14792;50.886;6.468;2023-11-19T07:41:21;11.70;99.90
27306;DHT22;14792;50.886;6.468;2023-11-19T07:44:22;11.70;99.90
27306;DHT22;14792;50.886;6.468;2023-11-19T07:47:24;11.70;99.90
27306;DHT22;14792;50.886;6.468;2023-11-19T07:50:25;11.80;99.90
27306;DHT22;14792;50.886;6.468;2023-11-19T07:53:27;11.70;99.90
27306;DHT22;14792;50.886;6.468;2023-11-19T07:56:29;11.70;99.90
27306;DHT22;14792;50.886;6.468;2023-11-19T07:59:30;11.90;99.90
27306;DHT22;14792;50.886;6.468;2023-11-19T08:02:32;12.00;99.90
27306;DHT22;14792;50.886;6.468;2023-11-19T08:05:33;12.10;99.90
27306;DHT22;14792;50.886;6.468;2023-11-19T08:08:35;12.10;99.90
27306;DHT22;14792;50.886;6.468;2023-11-19T08:11:37;12.20;99.90
27306;DHT22;14792;50.886;6.468;2023-11-19T08:14:38;12.30;99.90
27306;DHT22;14792;50.886;6.468;2023-11-19T08:17:40;12.30;99.90
27306;DHT22;14792;50.886;6.468;2023-11-19T08:20:41;12.30;99.90
27306;DHT22;14792;50.886;6.468;2023-11-19T08:23:43;12.30;99.90
27306;DHT22;14792;50.886;6.468;2023-11-19T08:26:45;12.40;99.90
27306;DHT22;14792;50.886;6.468;2023-11-19T08:29:46;12.50;99.90
27306;DHT22;14792;50.886;6.468;2023-11-19T08:32:48;12.50;99.90
27306;DHT22;14792;50.886;6.468;2023-11-19T08:35:49;12.60;99.90
27306;DHT22;14792;50.886;6.468;2023-11-19T08:38:51;12.70;99.90
27306;DHT22;14792;50.886;6.468;2023-11-19T08:41:52;12.60;99.90
27306;DHT22;14792;50.886;6.468;2023-11-19T08:44:54;12.60;99.90
27306;DHT22;14792;50.886;6.468;2023-11-19T08:47:56;12.60;99.90
27306;DHT22;14792;50.886;6.468;2023-11-19T08:50:57;12.60;99.90
27306;DHT22;14792;50.886;6.468;2023-11-19T08:53:59;12.60;99.90
27306;DHT22;14792;50.886;6.468;2023-11-19T08:57:00;12.70;99.90
27306;DHT22;14792;50.886;6.468;2023-11-19T09:00:02;12.60;99.90
27306;DHT22;14792;50.886;6.468;2023-11-19T09:03:04;12.70;99.90
27306;DHT22;14792;50.886;6.468;2023-11-19T09:06:05;12.70;99.90
27306;DHT22;14792;50.886;6.468;2023-11-19T09:09:07;12.80;99.90
27306;DHT22;14792;50.886;6.468;2023-11-19T09:12:08;12.80;99.90
27306;DHT22;14792;50.886;6.468;2023-11-19T09:15:10;12.80;99.90
27306;DHT22;14792;50.886;6.468;2023-11-19T09:18:12;12.80;99.90
27306;DHT22;14792;50.886;6.468;2023-11-19T09:21:13;12.90;99.90
27306;DHT22;14792;50.886;6.468;2023-11-19T09:24:15;12.90;99.90
27306;DHT22;14792;50.886;6.468;2023-11-19T09:27:16;13.00;99.90
27306;DHT22;14792;50.886;6.468;2023-11-19T09:30:18;13.10;99.90
27306;DHT22;14792;50.886;6.468;2023-11-19T09:33:20;13.10;99.90
27306;DHT22;14792;50.886;6.468;2023-11-19T09:36:21;13.10;99.90
27306;DHT22;14792;50.886;6.468;2023-11-19T09:39:23;13.20;99.90
27306;DHT22;14792;50.886;6.468;2023-11-19T09:42:24;13.20;99.90
27306;DHT22;14792;50.886;6.468;2023-11-19T09:45:27;13.20;99.90
27306;DHT22;14792;50.886;6.468;2023-11-19T09:48:27;13.30;99.90
27306;DHT22;14792;50.886;6.468;2023-11-19T09:51:29;13.30;99.90
27306;DHT22;14792;50.886;6.468;2023-11-19T09:54:31;13.30;99.90
27306;DHT22;14792;50.886;6.468;2023-11-19T09:57:32;13.30;99.90
27306;DHT22;14792;50.886;6.468;2023-11-19T10:00:34;13.40;99.90
27306;DHT22;14792;50.886;6.468;2023-11-19T10:03:36;13.40;99.90
27306;DHT22;14792;50.886;6.468;2023-11-19T10:06:40;13.40;99.90
27306;DHT22;14792;50.886;6.468;2023-11-19T10:09:41;13.40;99.90
27306;DHT22;14792;50.886;6.468;2023-11-19T10:12:43;13.50;99.90
27306;DHT22;14792;50.886;6.468;2023-11-19T10:15:44;13.50;99.90
27306;DHT22;14792;50.886;6.468;2023-11-19T10:18:46;13.50;99.90
27306;DHT22;14792;50.886;6.468;2023-11-19T10:21:48;13.60;99.90
27306;DHT22;14792;50.886;6.468;2023-11-19T10:24:49;13.50;99.90
27306;DHT22;14792;50.886;6.468;2023-11-19T10:27:51;13.50;99.90
27306;DHT22;14792;50.886;6.468;2023-11-19T10:30:55;13.70;99.90
27306;DHT22;14792;50.886;6.468;2023-11-19T10:33:54;13.70;99.90
27306;DHT22;14792;50.886;6.468;2023-11-19T10:36:56;13.60;99.90
27306;DHT22;14792;50.886;6.468;2023-11-19T10:39:57;13.50;99.90
27306;DHT22;14792;50.886;6.468;2023-11-19T10:43:02;13.60;99.90
27306;DHT22;14792;50.886;6.468;2023-11-19T10:46:13;13.90;99.90
27306;DHT22;14792;50.886;6.468;2023-11-19T10:49:14;13.70;99.90
27306;DHT22;14792;50.886;6.468;2023-11-19T10:52:17;13.80;99.90
27306;DHT22;14792;50.886;6.468;2023-11-19T10:55:18;13.80;99.90
27306;DHT22;14792;50.886;6.468;2023-11-19T10:58:20;13.80;99.90
27306;DHT22;14792;50.886;6.468;2023-11-19T11:01:21;14.10;99.90
27306;DHT22;14792;50.886;6.468;2023-11-19T11:04:23;14.10;99.90
27306;DHT22;14792;50.886;6.468;2023-11-19T11:07:25;14.10;99.90
27306;DHT22;14792;50.886;6.468;2023-11-19T11:10:26;14.10;99.90
27306;DHT22;14792;50.886;6.468;2023-11-19T11:13:28;13.90;99.90
27306;DHT22;14792;50.886;6.468;2023-11-19T11:16:29;13.90;99.90
27306;DHT22;14792;50.886;6.468;2023-11-19T11:19:31;13.70;99.90
27306;DHT22;14792;50.886;6.468;2023-11-19T11:22:42;13.70;99.90
27306;DHT22;14792;50.886;6.468;2023-11-19T11:29:04;13.90;99.90
27306;DHT22;14792;50.886;6.468;2023-11-19T11:32:30;13.70;99.90
27306;DHT22;14792;50.886;6.468;2023-11-19T11:35:45;13.70;99.90
27306;DHT22;14792;50.886;6.468;2023-11-19T11:38:43;13.80;99.90
27306;DHT22;14792;50.886;6.468;2023-11-19T11:41:45;13.80;99.90
27306;DHT22;14792;50.886;6.468;2023-11-19T11:45:05;13.90;99.90
27306;DHT22;14792;50.886;6.468;2023-11-19T11:48:12;13.90;99.90
27306;DHT22;14792;50.886;6.468;2023-11-19T11:51:13;13.90;99.90
27306;DHT22;14792;50.886;6.468;2023-11-19T11:57:19;14.00;99.90
27306;DHT22;14792;50.886;6.468;2023-11-19T12:00:27;13.90;99.90
27306;DHT22;14792;50.886;6.468;2023-11-19T12:03:28;14.10;99.90
27306;DHT22;14792;50.886;6.468;2023-11-19T12:06:32;14.00;99.90
27306;DHT22;14792;50.886;6.468;2023-11-19T12:09:31;14.10;99.90
27306;DHT22;14792;50.886;6.468;2023-11-19T12:12:33;14.20;99.90
27306;DHT22;14792;50.886;6.468;2023-11-19T12:16:06;14.30;99.90
27306;DHT22;14792;50.886;6.468;2023-11-19T12:18:36;14.40;99.90
27306;DHT22;14792;50.886;6.468;2023-11-19T12:21:37;14.30;99.90
27306;DHT22;14792;50.886;6.468;2023-11-19T12:24:39;14.30;99.90
27306;DHT22;14792;50.886;6.468;2023-11-19T12:27:41;14.20;99.90
27306;DHT22;14792;50.886;6.468;2023-11-19T12:30:42;14.20;99.90
27306;DHT22;14792;50.886;6.468;2023-11-19T12:33:44;14.30;99.90
27306;DHT22;14792;50.886;6.468;2023-11-19T12:36:45;14.20;99.90
27306;DHT22;14792;50.886;6.468;2023-11-19T12:39:50;14.10;99.90
27306;DHT22;14792;50.886;6.468;2023-11-19T12:42:52;14.00;99.90
27306;DHT22;14792;50.886;6.468;2023-11-19T12:45:53;13.90;99.90
27306;DHT22;14792;50.886;6.468;2023-11-19T12:48:55;13.90;99.90
27306;DHT22;14792;50.886;6.468;2023-11-19T12:51:56;13.90;99.90
27306;DHT22;14792;50.886;6.468;2023-11-19T12:54:58;13.90;99.90
27306;DHT22;14792;50.886;6.468;2023-11-19T12:57:59;13.90;99.90
27306;DHT22;14792;50.886;6.468;2023-11-19T13:04:15;13.60;99.90
27306;DHT22;14792;50.886;6.468;2023-11-19T13:07:04;13.60;99.90
27306;DHT22;14792;50.886;6.468;2023-11-19T13:10:06;13.60;99.90
27306;DHT22;14792;50.886;6.468;2023-11-19T13:13:08;13.70;99.90
27306;DHT22;14792;50.886;6.468;2023-11-19T13:16:12;13.70;99.90
27306;DHT22;14792;50.886;6.468;2023-11-19T13:19:13;13.60;99.90
27306;DHT22;14792;50.886;6.468;2023-11-19T13:22:15;13.70;99.90
27306;DHT22;14792;50.886;6.468;2023-11-19T13:25:16;13.80;99.90
27306;DHT22;14792;50.886;6.468;2023-11-19T13:28:19;13.80;99.90
27306;DHT22;14792;50.886;6.468;2023-11-19T13:31:20;13.60;99.90
27306;DHT22;14792;50.886;6.468;2023-11-19T13:34:22;13.80;99.90
27306;DHT22;14792;50.886;6.468;2023-11-19T13:37:23;13.80;99.90
27306;DHT22;14792;50.886;6.468;2023-11-19T13:40:25;13.90;99.90
27306;DHT22;14792;50.886;6.468;2023-11-19T13:43:27;13.90;99.90
27306;DHT22;14792;50.886;6.468;2023-11-19T13:46:31;14.00;99.90
27306;DHT22;14792;50.886;6.468;2023-11-19T13:49:33;14.10;99.90
27306;DHT22;14792;50.886;6.468;2023-11-19T13:52:34;14.20;99.90
27306;DHT22;14792;50.886;6.468;2023-11-19T13:55:36;14.30;99.90
27306;DHT22;14792;50.886;6.468;2023-11-19T13:58:37;14.40;99.90
27306;DHT22;14792;50.886;6.468;2023-11-19T14:01:39;14.40;99.90
27306;DHT22;14792;50.886;6.468;2023-11-19T14:04:40;14.40;99.90
27306;DHT22;14792;50.886;6.468;2023-11-19T14:07:42;14.30;99.90
27306;DHT22;14792;50.886;6.468;2023-11-19T14:10:44;14.20;99.90
27306;DHT22;14792;50.886;6.468;2023-11-19T14:13:45;14.20;99.90
27306;DHT22;14792;50.886;6.468;2023-11-19T14:16:47;14.10;99.90
27306;DHT22;14792;50.886;6.468;2023-11-19T14:19:49;13.80;99.90
27306;DHT22;14792;50.886;6.468;2023-11-19T14:22:50;13.80;99.90
27306;DHT22;14792;50.886;6.468;2023-11-19T14:25:52;13.70;99.90
27306;DHT22;14792;50.886;6.468;2023-11-19T14:28:53;13.60;99.90
27306;DHT22;14792;50.886;6.468;2023-11-19T14:31:55;13.60;99.90
27306;DHT22;14792;50.886;6.468;2023-11-19T14:34:56;13.50;99.90
27306;DHT22;14792;50.886;6.468;2023-11-19T14:37:58;13.60;99.90
27306;DHT22;14792;50.886;6.468;2023-11-19T14:41:00;13.50;99.90
27306;DHT22;14792;50.886;6.468;2023-11-19T14:44:01;13.30;99.90
27306;DHT22;14792;50.886;6.468;2023-11-19T14:47:03;13.20;99.90
27306;DHT22;14792;50.886;6.468;2023-11-19T14:50:05;13.20;99.90
27306;DHT22;14792;50.886;6.468;2023-11-19T14:53:06;13.10;99.90
27306;DHT22;14792;50.886;6.468;2023-11-19T14:56:10;13.00;99.90
27306;DHT22;14792;50.886;6.468;2023-11-19T14:59:09;12.90;99.90
27306;DHT22;14792;50.886;6.468;2023-11-19T15:02:11;12.90;99.90
27306;DHT22;14792;50.886;6.468;2023-11-19T15:05:12;12.90;99.90
27306;DHT22;14792;50.886;6.468;2023-11-19T15:08:14;12.70;99.90
27306;DHT22;14792;50.886;6.468;2023-11-19T15:11:19;12.60;99.90
27306;DHT22;14792;50.886;6.468;2023-11-19T15:14:21;12.50;99.90
27306;DHT22;14792;50.886;6.468;2023-11-19T15:17:22;12.40;99.90
27306;DHT22;14792;50.886;6.468;2023-11-19T15:20:24;12.40;99.90
27306;DHT22;14792;50.886;6.468;2023-11-19T15:23:26;12.30;99.90
27306;DHT22;14792;50.886;6.468;2023-11-19T15:26:27;12.30;99.90
27306;DHT22;14792;50.886;6.468;2023-11-19T15:29:29;12.40;99.90
27306;DHT22;14792;50.886;6.468;2023-11-19T15:32:30;12.30;99.90
27306;DHT22;14792;50.886;6.468;2023-11-19T15:35:32;12.40;99.90
27306;DHT22;14792;50.886;6.468;2023-11-19T15:38:34;12.30;99.90
27306;DHT22;14792;50.886;6.468;2023-11-19T15:41:35;12.20;99.90
27306;DHT22;14792;50.886;6.468;2023-11-19T15:44:37;12.20;99.90
27306;DHT22;14792;50.886;6.468;2023-11-19T15:47:38;12.20;99.90
27306;DHT22;14792;50.886;6.468;2023-11-19T15:50:40;12.20;99.90
27306;DHT22;14792;50.886;6.468;2023-11-19T15:53:42;12.20;99.90
27306;DHT22;14792;50.886;6.468;2023-11-19T15:56:43;12.20;99.90
27306;DHT22;14792;50.886;6.468;2023-11-19T15:59:45;12.10;99.90
27306;DHT22;14792;50.886;6.468;2023-11-19T16:02:47;12.20;99.90
27306;DHT22;14792;50.886;6.468;2023-11-19T16:05:51;12.20;99.90
27306;DHT22;14792;50.886;6.468;2023-11-19T16:08:52;12.20;99.90
27306;DHT22;14792;50.886;6.468;2023-11-19T16:11:54;12.30;99.90
27306;DHT22;14792;50.886;6.468;2023-11-19T16:14:55;12.40;99.90
27306;DHT22;14792;50.886;6.468;2023-11-19T16:17:57;12.40;99.90
27306;DHT22;14792;50.886;6.468;2023-11-19T16:20:58;12.40;99.90
27306;DHT22;14792;50.886;6.468;2023-11-19T16:24:03;12.40;99.90
27306;DHT22;14792;50.886;6.468;2023-11-19T16:27:02;12.40;99.90
27306;DHT22;14792;50.886;6.468;2023-11-19T16:30:03;12.40;99.90
27306;DHT22;14792;50.886;6.468;2023-11-19T16:33:05;12.50;99.90
27306;DHT22;14792;50.886;6.468;2023-11-19T16:36:07;12.50;99.90
27306;DHT22;14792;50.886;6.468;2023-11-19T16:39:08;12.50;99.90
27306;DHT22;14792;50.886;6.468;2023-11-19T16:42:10;12.50;99.90
27306;DHT22;14792;50.886;6.468;2023-11-19T16:45:12;12.50;99.90
27306;DHT22;14792;50.886;6.468;2023-11-19T16:48:13;12.60;99.90
27306;DHT22;14792;50.886;6.468;2023-11-19T16:51:15;12.50;99.90
27306;DHT22;14792;50.886;6.468;2023-11-19T16:54:17;12.50;99.90
27306;DHT22;14792;50.886;6.468;2023-11-19T16:57:19;12.50;99.90
27306;DHT22;14792;50.886;6.468;2023-11-19T17:00:20;12.40;99.90
27306;DHT22;14792;50.886;6.468;2023-11-19T17:03:22;12.40;99.90
27306;DHT22;14792;50.886;6.468;2023-11-19T17:06:24;12.40;99.90
27306;DHT22;14792;50.886;6.468;2023-11-19T17:09:25;12.40;99.90
27306;DHT22;14792;50.886;6.468;2023-11-19T17:12:27;12.50;99.90
27306;DHT22;14792;50.886;6.468;2023-11-19T17:15:28;12.50;99.90
27306;DHT22;14792;50.886;6.468;2023-11-19T17:18:30;12.60;99.90
27306;DHT22;14792;50.886;6.468;2023-11-19T17:21:32;12.60;99.90
27306;DHT22;14792;50.886;6.468;2023-11-19T17:24:33;12.60;99.90
27306;DHT22;14792;50.886;6.468;2023-11-19T17:27:35;12.50;99.90
27306;DHT22;14792;50.886;6.468;2023-11-19T17:30:37;12.50;99.90
27306;DHT22;14792;50.886;6.468;2023-11-19T17:33:38;12.60;99.90
27306;DHT22;14792;50.886;6.468;2023-11-19T17:36:39;12.50;99.90
27306;DHT22;14792;50.886;6.468;2023-11-19T17:39:41;12.60;99.90
27306;DHT22;14792;50.886;6.468;2023-11-19T17:42:43;12.60;99.90
27306;DHT22;14792;50.886;6.468;2023-11-19T17:45:44;12.60;99.90
27306;DHT22;14792;50.886;6.468;2023-11-19T17:48:46;12.60;99.90
27306;DHT22;14792;50.886;6.468;2023-11-19T17:51:47;12.50;99.90
27306;DHT22;14792;50.886;6.468;2023-11-19T17:54:51;12.50;99.90
27306;DHT22;14792;50.886;6.468;2023-11-19T17:57:52;12.50;99.90
27306;DHT22;14792;50.886;6.468;2023-11-19T18:00:54;12.50;99.90
27306;DHT22;14792;50.886;6.468;2023-11-19T18:03:55;12.40;99.90
27306;DHT22;14792;50.886;6.468;2023-11-19T18:06:57;12.30;99.90
27306;DHT22;14792;50.886;6.468;2023-11-19T18:09:58;12.20;99.90
27306;DHT22;14792;50.886;6.468;2023-11-19T18:13:00;12.20;99.90
27306;DHT22;14792;50.886;6.468;2023-11-19T18:16:02;12.10;99.90
27306;DHT22;14792;50.886;6.468;2023-11-19T18:19:03;12.10;99.90
27306;DHT22;14792;50.886;6.468;2023-11-19T18:22:05;12.00;99.90
27306;DHT22;14792;50.886;6.468;2023-11-19T18:25:06;12.00;99.90
27306;DHT22;14792;50.886;6.468;2023-11-19T18:28:08;12.00;99.90
27306;DHT22;14792;50.886;6.468;2023-11-19T18:31:10;12.00;99.90
27306;DHT22;14792;50.886;6.468;2023-11-19T18:34:11;12.00;99.90
27306;DHT22;14792;50.886;6.468;2023-11-19T18:37:13;11.80;99.90
27306;DHT22;14792;50.886;6.468;2023-11-19T18:40:14;11.90;99.90
27306;DHT22;14792;50.886;6.468;2023-11-19T18:43:16;11.90;99.90
27306;DHT22;14792;50.886;6.468;2023-11-19T18:46:18;11.90;99.90
27306;DHT22;14792;50.886;6.468;2023-11-19T18:49:20;11.90;99.90
27306;DHT22;14792;50.886;6.468;2023-11-19T18:52:21;11.90;99.90
27306;DHT22;14792;50.886;6.468;2023-11-19T18:55:23;11.80;99.90
27306;DHT22;14792;50.886;6.468;2023-11-19T18:58:24;11.80;99.90
27306;DHT22;14792;50.886;6.468;2023-11-19T19:01:26;11.70;99.90
27306;DHT22;14792;50.886;6.468;2023-11-19T19:04:28;11.70;99.90
27306;DHT22;14792;50.886;6.468;2023-11-19T19:07:29;11.60;99.90
27306;DHT22;14792;50.886;6.468;2023-11-19T19:10:31;11.50;99.90
27306;DHT22;14792;50.886;6.468;2023-11-19T19:13:32;11.40;99.90
27306;DHT22;14792;50.886;6.468;2023-11-19T19:16:34;11.30;99.90